createdAt,value
2023-03-06T00:01:09.185Z,1.38
2023-03-06T00:03:36.731Z,1.47
2023-03-06T00:06:04.592Z,1.46
2023-03-06T00:08:32.153Z,1.46
2023-03-06T00:11:01.038Z,1.37
2023-03-06T00:13:30.559Z,1.41
2023-03-06T00:16:00.212Z,1.35
2023-03-06T00:18:28.046Z,1.45
2023-03-06T00:20:55.577Z,1.44
2023-03-06T00:23:23.431Z,1.35
2023-03-06T00:25:50.938Z,1.21
2023-03-06T00:28:19.901Z,1.08
2023-03-06T00:30:48.528Z,0.98
2023-03-06T00:33:16.068Z,0.95
2023-03-06T00:35:43.688Z,0.86
2023-03-06T00:38:13.471Z,0.88
2023-03-06T00:40:41.089Z,0.86
2023-03-06T00:43:08.688Z,0.85
2023-03-06T00:45:37.749Z,0.87
2023-03-06T00:48:06.385Z,0.83
2023-03-06T00:50:35.045Z,0.93
2023-03-06T00:53:02.663Z,0.90
2023-03-06T00:55:31.061Z,0.86
2023-03-06T00:57:58.628Z,0.84
2023-03-06T01:00:28.822Z,0.88
2023-03-06T01:02:57.680Z,0.84
2023-03-06T01:05:25.281Z,0.90
2023-03-06T01:07:52.983Z,0.97
2023-03-06T01:10:20.774Z,0.97
2023-03-06T01:12:48.660Z,0.94
2023-03-06T01:15:16.243Z,0.90
2023-03-06T01:17:43.813Z,0.93
2023-03-06T01:20:14.945Z,0.88
2023-03-06T01:22:43.022Z,0.90
2023-03-06T01:25:10.951Z,0.87
2023-03-06T01:27:38.452Z,0.86
2023-03-06T01:30:07.155Z,0.94
2023-03-06T01:32:34.851Z,0.99
2023-03-06T01:35:03.663Z,0.97
2023-03-06T01:37:32.532Z,1.04
2023-03-06T01:40:00.093Z,1.17
2023-03-06T01:42:27.647Z,1.21
2023-03-06T01:45:03.177Z,1.11
2023-03-06T01:47:30.833Z,1.09
2023-03-06T01:49:59.879Z,1.06
2023-03-06T01:52:30.295Z,1.05
2023-03-06T01:55:03.345Z,0.98
2023-03-06T01:57:34.275Z,0.99
2023-03-06T02:00:06.005Z,1.01
2023-03-06T02:02:43.453Z,1.05
2023-03-06T02:05:11.009Z,1.10
2023-03-06T02:07:41.039Z,1.12
2023-03-06T02:10:11.509Z,1.07
2023-03-06T02:12:42.243Z,1.08
2023-03-06T02:15:19.256Z,1.06
2023-03-06T02:17:49.538Z,0.99
2023-03-06T02:20:24.621Z,0.94
2023-03-06T02:22:58.928Z,0.96
2023-03-06T02:25:37.132Z,1.00
2023-03-06T02:28:06.005Z,0.95
2023-03-06T02:30:34.114Z,0.91
2023-03-06T02:33:03.999Z,0.98
2023-03-06T02:35:34.512Z,1.06
2023-03-06T02:38:07.322Z,1.10
2023-03-06T02:40:36.658Z,1.10
2023-03-06T02:43:04.753Z,1.08
2023-03-06T02:45:37.751Z,1.06
2023-03-06T02:48:06.569Z,1.13
2023-03-06T02:50:34.505Z,1.12
2023-03-06T02:53:02.142Z,1.10
2023-03-06T02:55:31.619Z,1.04
2023-03-06T02:58:01.472Z,1.23
2023-03-06T03:00:30.518Z,1.23
2023-03-06T03:02:58.409Z,1.19
2023-03-06T03:05:26.989Z,1.12
2023-03-06T03:08:00.432Z,1.16
2023-03-06T03:10:29.802Z,1.15
2023-03-06T03:12:58.205Z,1.11
2023-03-06T03:15:27.522Z,0.95
2023-03-06T03:17:55.072Z,1.02
2023-03-06T03:20:23.519Z,0.91
2023-03-06T03:22:54.839Z,0.95
2023-03-06T03:25:23.870Z,0.93
2023-03-06T03:27:52.574Z,0.81
2023-03-06T03:30:21.144Z,0.84
2023-03-06T03:32:50.639Z,0.86
2023-03-06T03:35:18.991Z,0.81
2023-03-06T03:37:47.669Z,0.82
2023-03-06T03:40:15.735Z,0.79
2023-03-06T03:42:43.365Z,0.76
2023-03-06T03:45:12.486Z,0.71
2023-03-06T03:47:41.400Z,0.72
2023-03-06T03:50:11.959Z,0.70
2023-03-06T03:52:39.970Z,0.71
2023-03-06T03:55:08.924Z,0.81
2023-03-06T03:57:39.282Z,0.84
2023-03-06T04:00:09.864Z,0.90
2023-03-06T04:02:59.999Z,0.91
2023-03-06T04:05:34.106Z,0.93
2023-03-06T04:08:04.208Z,0.93
2023-03-06T04:10:34.184Z,0.83
2023-03-06T04:13:02.595Z,0.78
2023-03-06T04:15:30.406Z,0.77
2023-03-06T04:17:58.077Z,0.85
2023-03-06T04:20:28.844Z,0.84
2023-03-06T04:22:59.330Z,0.88
2023-03-06T04:25:26.919Z,0.89
2023-03-06T04:27:54.610Z,0.94
2023-03-06T04:30:22.579Z,0.97
2023-03-06T04:32:50.095Z,0.91
2023-03-06T04:35:18.138Z,0.91
2023-03-06T04:37:55.791Z,0.84
2023-03-06T04:40:28.881Z,0.74
2023-03-06T04:42:57.280Z,0.62
2023-03-06T04:45:25.645Z,0.55
2023-03-06T04:47:53.434Z,0.61
2023-03-06T04:50:22.230Z,0.54
2023-03-06T04:52:49.745Z,0.52
2023-03-06T04:55:18.339Z,0.52
2023-03-06T04:57:48.073Z,0.52
2023-03-06T05:00:18.224Z,0.50
2023-03-06T05:02:46.613Z,0.53
2023-03-06T05:05:15.758Z,0.57
2023-03-06T05:07:43.773Z,0.49
2023-03-06T05:10:14.041Z,0.38
2023-03-06T05:12:41.956Z,0.43
2023-03-06T05:15:12.971Z,0.34
2023-03-06T05:17:40.575Z,0.36
2023-03-06T05:20:11.263Z,0.33
2023-03-06T05:22:39.008Z,0.26
2023-03-06T05:25:07.375Z,0.24
2023-03-06T05:27:35.371Z,0.23
2023-03-06T05:30:03.662Z,0.26
2023-03-06T05:32:35.368Z,0.31
2023-03-06T05:35:03.290Z,0.25
2023-03-06T05:37:30.977Z,0.29
2023-03-06T05:39:58.688Z,0.29
2023-03-06T05:42:28.611Z,0.16
2023-03-06T05:44:56.273Z,0.12
2023-03-06T05:47:23.814Z,0.09
2023-03-06T05:49:52.685Z,0.05
2023-03-06T05:52:20.459Z,0.10
2023-03-06T05:54:50.875Z,0.06
2023-03-06T05:57:20.422Z,0.02
2023-03-06T05:59:48.530Z,0.04
2023-03-06T06:02:16.218Z,0.12
2023-03-06T06:04:44.338Z,0.10
2023-03-06T06:07:15.949Z,0.12
2023-03-06T06:09:45.357Z,0.23
2023-03-06T06:12:13.978Z,0.23
2023-03-06T06:14:41.580Z,0.33
2023-03-06T06:17:09.132Z,0.15
2023-03-06T06:19:36.698Z,0.29
2023-03-06T06:22:04.312Z,0.24
2023-03-06T06:24:33.252Z,0.23
2023-03-06T06:27:03.756Z,0.35
2023-03-06T06:29:32.016Z,0.30
2023-03-06T06:32:00.368Z,0.11
2023-03-06T06:34:29.015Z,0.12
2023-03-06T06:36:56.564Z,0.13
2023-03-06T06:39:25.318Z,0.19
2023-03-06T06:42:26.083Z,0.21
2023-03-06T06:44:41.705Z,0.04
2023-03-06T06:47:25.759Z,0.08
2023-03-06T06:49:55.369Z,0.16
2023-03-06T06:52:23.609Z,0.08
2023-03-06T06:54:51.223Z,0.14
2023-03-06T06:57:20.160Z,0.16
2023-03-06T06:59:47.719Z,-0.01
2023-03-06T07:02:16.438Z,0.08
2023-03-06T07:05:01.962Z,0.17
2023-03-06T07:07:30.624Z,0.25
2023-03-06T07:09:58.160Z,0.21
2023-03-06T07:12:27.140Z,0.11
2023-03-06T07:14:54.703Z,0.09
2023-03-06T07:17:22.289Z,0.08
2023-03-06T07:19:50.157Z,0.11
2023-03-06T07:22:17.669Z,0.05
2023-03-06T07:24:45.187Z,0.09
2023-03-06T07:27:13.069Z,0.12
2023-03-06T07:29:43.213Z,0.19
2023-03-06T07:32:11.144Z,0.18
2023-03-06T07:34:38.725Z,0.21
2023-03-06T07:37:06.322Z,0.23
2023-03-06T07:39:33.917Z,0.20
2023-03-06T07:42:01.569Z,0.23
2023-03-06T07:44:29.096Z,0.25
2023-03-06T07:46:58.094Z,0.26
2023-03-06T07:49:25.682Z,0.36
2023-03-06T07:51:53.256Z,0.48
2023-03-06T07:54:20.843Z,0.47
2023-03-06T07:56:51.118Z,0.51
2023-03-06T07:59:18.969Z,0.57
2023-03-06T08:01:46.548Z,0.41
2023-03-06T08:04:15.627Z,0.66
2023-03-06T08:06:43.266Z,0.71
2023-03-06T08:09:10.795Z,0.68
2023-03-06T08:11:38.358Z,0.69
2023-03-06T08:14:05.925Z,0.74
2023-03-06T08:16:33.623Z,0.87
2023-03-06T08:19:01.190Z,0.90
2023-03-06T08:21:30.210Z,0.86
2023-03-06T08:23:57.870Z,0.86
2023-03-06T08:26:28.713Z,0.73
2023-03-06T08:28:58.264Z,0.78
2023-03-06T08:31:28.655Z,0.83
2023-03-06T08:33:58.042Z,0.96
2023-03-06T08:36:25.957Z,1.15
2023-03-06T08:38:54.951Z,1.23
2023-03-06T08:41:23.317Z,1.16
2023-03-06T08:43:51.332Z,1.24
2023-03-06T08:46:19.716Z,1.05
2023-03-06T08:48:48.157Z,1.06
2023-03-06T08:51:16.202Z,1.13
2023-03-06T08:53:44.527Z,1.30
2023-03-06T08:56:18.507Z,1.10
2023-03-06T08:58:46.540Z,1.35
2023-03-06T09:01:15.817Z,1.29
2023-03-06T09:03:43.505Z,1.28
2023-03-06T09:06:11.406Z,1.12
2023-03-06T09:08:42.819Z,1.16
2023-03-06T09:11:10.837Z,1.35
2023-03-06T09:13:40.003Z,1.47
2023-03-06T09:16:08.779Z,1.57
2023-03-06T09:18:36.663Z,1.47
2023-03-06T09:21:04.866Z,1.66
2023-03-06T09:23:32.773Z,1.59
2023-03-06T09:26:01.442Z,1.63
2023-03-06T09:28:28.999Z,1.65
2023-03-06T09:30:58.106Z,1.65
2023-03-06T09:33:25.666Z,1.60
2023-03-06T09:35:55.476Z,1.69
2023-03-06T09:38:25.006Z,1.86
2023-03-06T09:41:04.540Z,1.90
2023-03-06T09:43:36.282Z,1.83
2023-03-06T09:46:17.500Z,1.81
2023-03-06T09:48:57.929Z,1.78
2023-03-06T09:51:33.953Z,1.87
2023-03-06T09:54:12.778Z,1.87
2023-03-06T09:56:45.057Z,2.07
2023-03-06T09:59:18.240Z,2.18
2023-03-06T10:01:54.922Z,2.32
2023-03-06T10:04:35.521Z,2.49
2023-03-06T10:07:09.285Z,2.78
2023-03-06T10:09:43.936Z,3.00
2023-03-06T10:12:25.051Z,3.27
2023-03-06T10:15:12.966Z,3.31
2023-03-06T10:17:43.403Z,3.06
2023-03-06T10:20:18.663Z,3.27
2023-03-06T10:23:00.637Z,3.32
2023-03-06T10:25:33.826Z,3.35
2023-03-06T10:28:10.519Z,3.34
2023-03-06T10:30:43.429Z,3.41
2023-03-06T10:33:23.638Z,3.75
2023-03-06T10:35:53.210Z,3.72
2023-03-06T10:38:23.990Z,3.71
2023-03-06T10:41:20.691Z,3.68
2023-03-06T10:44:18.892Z,3.38
2023-03-06T10:46:48.776Z,3.57
2023-03-06T10:49:31.019Z,3.82
2023-03-06T10:52:01.677Z,3.75
2023-03-06T10:54:30.870Z,3.88
2023-03-06T10:56:58.530Z,3.91
2023-03-06T10:59:28.390Z,4.01
2023-03-06T11:01:58.027Z,3.97
2023-03-06T11:04:30.098Z,4.14
2023-03-06T11:07:13.035Z,4.20
2023-03-06T11:09:41.789Z,4.62
2023-03-06T11:12:26.079Z,4.68
2023-03-06T11:15:18.464Z,4.71
2023-03-06T11:17:52.295Z,4.57
2023-03-06T11:20:24.768Z,4.09
2023-03-06T11:22:56.527Z,4.39
2023-03-06T11:25:30.814Z,4.16
2023-03-06T11:28:03.220Z,4.03
2023-03-06T11:30:38.437Z,4.20
2023-03-06T11:33:16.462Z,4.43
2023-03-06T11:35:52.777Z,4.56
2023-03-06T11:38:26.970Z,4.48
2023-03-06T11:40:56.957Z,4.50
2023-03-06T11:43:33.416Z,4.71
2023-03-06T11:46:06.437Z,4.83
2023-03-06T11:48:37.702Z,4.88
2023-03-06T11:51:14.976Z,4.81
2023-03-06T11:53:42.695Z,4.54
2023-03-06T11:56:30.537Z,4.31
2023-03-06T11:59:07.845Z,4.33
2023-03-06T12:01:39.964Z,4.53
2023-03-06T12:04:38.596Z,4.70
2023-03-06T12:07:20.789Z,4.68
2023-03-06T12:09:56.735Z,4.69
2023-03-06T12:12:38.569Z,4.60
2023-03-06T12:15:23.607Z,4.48
2023-03-06T12:18:14.159Z,4.31
2023-03-06T12:20:54.253Z,4.27
2023-03-06T12:23:43.642Z,4.44
2023-03-06T12:26:28.631Z,4.62
2023-03-06T12:29:12.815Z,4.98
2023-03-06T12:31:54.007Z,5.08
2023-03-06T12:34:34.280Z,4.87
2023-03-06T12:37:13.969Z,5.20
2023-03-06T12:39:55.647Z,5.38
2023-03-06T12:42:39.761Z,5.44
2023-03-06T12:45:28.437Z,5.22
2023-03-06T12:47:57.969Z,5.26
2023-03-06T12:50:28.401Z,5.33
2023-03-06T12:52:58.940Z,5.34
2023-03-06T12:55:28.085Z,5.45
2023-03-06T12:57:55.694Z,5.48
2023-03-06T13:01:05.778Z,5.49
2023-03-06T13:03:49.699Z,5.48
2023-03-06T13:06:44.961Z,5.12
2023-03-06T13:09:20.705Z,5.17
2023-03-06T13:12:05.231Z,4.92
2023-03-06T13:14:54.841Z,4.78
2023-03-06T13:17:34.397Z,4.57
2023-03-06T13:20:23.793Z,4.50
2023-03-06T13:22:51.298Z,4.65
2023-03-06T13:25:48.781Z,4.62
2023-03-06T13:28:40.833Z,4.63
2023-03-06T13:31:21.390Z,4.58
2023-03-06T13:34:00.042Z,4.82
2023-03-06T13:36:29.948Z,5.10
2023-03-06T13:39:08.536Z,5.32
2023-03-06T13:41:41.454Z,5.21
2023-03-06T13:44:49.552Z,5.23
2023-03-06T13:48:05.805Z,5.31
2023-03-06T13:50:36.523Z,5.31
2023-03-06T13:53:21.722Z,5.17
2023-03-06T13:56:00.142Z,5.41
2023-03-06T13:58:42.524Z,5.29
2023-03-06T14:01:28.126Z,5.35
2023-03-06T14:04:19.737Z,5.38
2023-03-06T14:07:01.669Z,5.38
2023-03-06T14:09:33.538Z,5.24
2023-03-06T14:12:08.729Z,5.15
2023-03-06T14:14:40.982Z,5.18
2023-03-06T14:17:19.277Z,5.30
2023-03-06T14:19:48.493Z,5.26
2023-03-06T14:22:19.624Z,5.39
2023-03-06T14:24:55.995Z,5.39
2023-03-06T14:27:45.701Z,5.47
2023-03-06T14:30:16.745Z,5.47
2023-03-06T14:32:44.481Z,5.51
2023-03-06T14:35:29.499Z,5.57
2023-03-06T14:38:00.115Z,5.56
2023-03-06T14:40:32.419Z,5.64
2023-03-06T14:43:21.537Z,5.64
2023-03-06T14:45:55.277Z,5.39
2023-03-06T14:48:23.541Z,5.32
2023-03-06T14:50:54.811Z,5.13
2023-03-06T14:53:25.670Z,5.33
2023-03-06T14:55:57.741Z,5.09
2023-03-06T14:58:32.394Z,5.14
2023-03-06T15:01:04.364Z,5.07
2023-03-06T15:03:39.623Z,5.05
2023-03-06T15:06:11.883Z,4.95
2023-03-06T15:08:41.408Z,4.85
2023-03-06T15:11:08.936Z,4.85
2023-03-06T15:13:36.678Z,4.82
2023-03-06T15:16:06.176Z,4.85
2023-03-06T15:18:38.736Z,5.02
2023-03-06T15:21:17.927Z,4.97
2023-03-06T15:23:47.124Z,5.00
2023-03-06T15:26:28.046Z,4.96
2023-03-06T15:29:08.315Z,4.71
2023-03-06T15:31:38.151Z,4.92
2023-03-06T15:34:23.408Z,4.93
2023-03-06T15:36:55.175Z,5.01
2023-03-06T15:39:35.234Z,5.04
2023-03-06T15:42:08.519Z,4.96
2023-03-06T15:44:36.086Z,5.06
2023-03-06T15:47:08.828Z,5.01
2023-03-06T15:49:38.098Z,4.82
2023-03-06T15:52:07.555Z,4.85
2023-03-06T15:54:35.652Z,4.79
2023-03-06T15:57:05.132Z,4.83
2023-03-06T15:59:36.302Z,4.84
2023-03-06T16:02:12.571Z,4.74
2023-03-06T16:04:40.234Z,4.71
2023-03-06T16:07:09.326Z,4.84
2023-03-06T16:09:37.063Z,4.84
2023-03-06T16:12:05.492Z,4.86
2023-03-06T16:14:33.144Z,4.84
2023-03-06T16:17:00.673Z,4.88
2023-03-06T16:19:28.264Z,4.83
2023-03-06T16:21:56.591Z,4.89
2023-03-06T16:24:26.084Z,4.84
2023-03-06T16:26:55.194Z,4.84
2023-03-06T16:29:24.554Z,4.86
2023-03-06T16:31:52.483Z,4.88
2023-03-06T16:34:20.047Z,4.83
2023-03-06T16:36:49.092Z,4.82
2023-03-06T16:39:18.171Z,4.72
2023-03-06T16:41:47.251Z,4.75
2023-03-06T16:44:14.777Z,4.64
2023-03-06T16:46:45.655Z,4.64
2023-03-06T16:49:17.200Z,4.71
2023-03-06T16:51:45.058Z,4.60
2023-03-06T16:54:12.908Z,4.52
2023-03-06T16:56:40.470Z,4.47
2023-03-06T16:59:09.787Z,4.41
2023-03-06T17:01:37.445Z,4.40
2023-03-06T17:04:05.417Z,4.41
2023-03-06T17:06:33.037Z,4.40
2023-03-06T17:09:00.662Z,4.43
2023-03-06T17:11:29.348Z,4.46
2023-03-06T17:13:56.884Z,4.29
2023-03-06T17:16:25.771Z,4.30
2023-03-06T17:18:53.322Z,4.31
2023-03-06T17:21:20.829Z,4.31
2023-03-06T17:23:48.386Z,4.28
2023-03-06T17:26:18.742Z,4.23
2023-03-06T17:28:47.282Z,4.21
2023-03-06T17:31:16.572Z,4.26
2023-03-06T17:33:45.977Z,4.23
2023-03-06T17:36:14.282Z,4.18
2023-03-06T17:38:42.012Z,4.05
2023-03-06T17:41:11.465Z,4.13
2023-03-06T17:43:39.690Z,4.09
2023-03-06T17:46:08.744Z,4.15
2023-03-06T17:48:37.207Z,3.94
2023-03-06T17:51:07.316Z,3.99
2023-03-06T17:53:34.897Z,4.01
2023-03-06T17:56:04.117Z,3.86
2023-03-06T17:58:32.144Z,3.98
2023-03-06T18:01:00.149Z,3.94
2023-03-06T18:03:27.715Z,3.98
2023-03-06T18:06:04.474Z,4.00
2023-03-06T18:08:33.400Z,3.87
2023-03-06T18:11:03.382Z,3.93
2023-03-06T18:13:31.068Z,3.82
2023-03-06T18:15:58.644Z,3.82
2023-03-06T18:18:26.437Z,3.83
2023-03-06T18:20:54.035Z,3.85
2023-03-06T18:23:21.601Z,3.63
2023-03-06T18:25:50.962Z,3.76
2023-03-06T18:28:18.491Z,3.75
2023-03-06T18:30:46.561Z,3.75
2023-03-06T18:33:14.158Z,3.61
2023-03-06T18:35:43.991Z,3.52
2023-03-06T18:38:11.607Z,3.58
2023-03-06T18:40:39.240Z,3.58
2023-03-06T18:43:08.144Z,3.61
2023-03-06T18:45:35.748Z,3.59
2023-03-06T18:48:04.803Z,3.53
2023-03-06T18:50:32.326Z,3.48
2023-03-06T18:52:59.824Z,3.39
2023-03-06T18:55:27.344Z,3.39
2023-03-06T18:57:54.918Z,3.43
2023-03-06T19:00:24.482Z,3.37
2023-03-06T19:02:51.996Z,3.45
2023-03-06T19:05:19.505Z,3.41
2023-03-06T19:07:47.091Z,3.47
2023-03-06T19:10:14.588Z,3.35
2023-03-06T19:12:42.181Z,3.36
2023-03-06T19:15:10.476Z,3.30
2023-03-06T19:17:39.446Z,3.36
2023-03-06T19:20:08.055Z,3.36
2023-03-06T19:22:35.645Z,3.31
2023-03-06T19:25:03.964Z,3.24
2023-03-06T19:27:32.549Z,3.18
2023-03-06T19:30:00.120Z,3.27
2023-03-06T19:32:28.754Z,3.26
2023-03-06T19:34:59.218Z,3.21
2023-03-06T19:37:26.778Z,3.12
2023-03-06T19:39:54.388Z,3.24
2023-03-06T19:42:21.919Z,3.20
2023-03-06T19:44:49.490Z,3.23
2023-03-06T19:47:16.983Z,3.21
2023-03-06T19:49:44.612Z,3.22
2023-03-06T19:52:13.773Z,3.10
2023-03-06T19:54:41.373Z,3.17
2023-03-06T19:57:08.941Z,3.11
2023-03-06T19:59:36.511Z,3.13
2023-03-06T20:02:04.007Z,3.10
2023-03-06T20:04:33.336Z,3.09
2023-03-06T20:07:00.951Z,3.00
2023-03-06T20:09:32.231Z,3.09
2023-03-06T20:11:59.969Z,3.02
2023-03-06T20:14:27.546Z,3.07
2023-03-06T20:16:55.149Z,3.02
2023-03-06T20:19:22.722Z,3.03
2023-03-06T20:21:50.265Z,3.08
2023-03-06T20:24:18.729Z,3.00
2023-03-06T20:26:48.823Z,3.04
2023-03-06T20:29:16.355Z,3.01
2023-03-06T20:31:43.996Z,3.05
2023-03-06T20:34:12.062Z,3.03
2023-03-06T20:36:41.370Z,3.10
2023-03-06T20:39:12.151Z,3.00
2023-03-06T20:41:40.262Z,2.97
2023-03-06T20:44:13.516Z,2.91
2023-03-06T20:46:41.284Z,2.92
2023-03-06T20:49:09.576Z,2.99
2023-03-06T20:51:39.210Z,2.93
2023-03-06T20:54:08.047Z,2.82
2023-03-06T20:56:39.335Z,2.89
2023-03-06T20:59:07.553Z,2.86
2023-03-06T21:01:39.016Z,2.72
2023-03-06T21:04:06.700Z,2.79
2023-03-06T21:06:34.406Z,2.76
2023-03-06T21:09:02.476Z,2.78
2023-03-06T21:11:30.058Z,2.71
2023-03-06T21:13:57.738Z,2.67
2023-03-06T21:16:26.917Z,2.66
2023-03-06T21:18:56.973Z,2.63
2023-03-06T21:21:28.202Z,2.57
2023-03-06T21:23:55.944Z,2.59
2023-03-06T21:26:25.553Z,2.57
2023-03-06T21:28:53.481Z,2.63
2023-03-06T21:31:22.595Z,2.62
2023-03-06T21:33:51.501Z,2.61
2023-03-06T21:36:22.420Z,2.56
2023-03-06T21:38:51.078Z,2.57
2023-03-06T21:41:20.053Z,2.57
2023-03-06T21:43:47.676Z,2.45
2023-03-06T21:46:15.247Z,2.52
2023-03-06T21:48:42.866Z,2.52
2023-03-06T21:51:12.649Z,2.56
2023-03-06T21:53:43.974Z,2.49
2023-03-06T21:56:12.910Z,2.56
2023-03-06T21:58:41.699Z,2.53
2023-03-06T22:01:10.599Z,2.44
2023-03-06T22:03:38.301Z,2.45
2023-03-06T22:06:10.801Z,2.44
2023-03-06T22:08:38.418Z,2.51
2023-03-06T22:11:09.397Z,2.48
2023-03-06T22:13:37.214Z,2.47
2023-03-06T22:16:05.576Z,2.46
2023-03-06T22:18:33.371Z,2.52
2023-03-06T22:21:00.899Z,2.57
2023-03-06T22:23:28.400Z,2.61
2023-03-06T22:25:55.949Z,2.70
2023-03-06T22:28:24.818Z,2.72
2023-03-06T22:30:52.298Z,2.73
2023-03-06T22:33:19.821Z,2.75
2023-03-06T22:35:47.363Z,2.74
2023-03-06T22:38:15.893Z,2.80
2023-03-06T22:40:43.429Z,2.83
2023-03-06T22:43:10.981Z,2.85
2023-03-06T22:45:39.879Z,2.84
2023-03-06T22:48:11.142Z,2.88
2023-03-06T22:50:38.841Z,2.85
2023-03-06T22:53:06.328Z,2.66
2023-03-06T22:55:35.805Z,2.46
2023-03-06T22:58:03.408Z,2.45
2023-03-06T23:00:30.930Z,2.47
2023-03-06T23:02:59.843Z,2.34
2023-03-06T23:05:29.358Z,2.13
2023-03-06T23:07:57.125Z,2.05
2023-03-06T23:10:24.644Z,1.80
2023-03-06T23:13:10.683Z,1.77
2023-03-06T23:15:56.730Z,1.79
2023-03-06T23:18:44.036Z,1.63
2023-03-06T23:21:30.309Z,1.75
2023-03-06T23:24:17.076Z,1.71
2023-03-06T23:26:44.642Z,1.69
2023-03-06T23:29:12.501Z,1.78
2023-03-06T23:31:39.997Z,1.51
2023-03-06T23:34:11.427Z,1.49
2023-03-06T23:36:38.911Z,1.55
2023-03-06T23:39:06.426Z,1.53
2023-03-06T23:41:34.114Z,1.60
2023-03-06T23:44:01.668Z,1.54
2023-03-06T23:46:29.300Z,1.66
2023-03-06T23:48:56.922Z,1.65
2023-03-06T23:51:25.805Z,1.57
2023-03-06T23:53:59.802Z,1.59
2023-03-06T23:56:29.190Z,1.48
2023-03-06T23:58:56.846Z,1.46
